createdAt,value
2022-11-22T00:00:14.216Z,62.93
2022-11-22T00:02:40.660Z,63.02
2022-11-22T00:05:07.644Z,63.33
2022-11-22T00:07:34.267Z,63.02
2022-11-22T00:10:00.867Z,63.22
2022-11-22T00:12:27.340Z,63.31
2022-11-22T00:14:56.823Z,63.00
2022-11-22T00:17:23.696Z,63.16
2022-11-22T00:19:50.192Z,63.22
2022-11-22T00:22:16.716Z,63.22
2022-11-22T00:24:44.312Z,63.33
2022-11-22T00:27:10.889Z,63.13
2022-11-22T00:29:37.354Z,63.13
2022-11-22T00:32:04.317Z,63.02
2022-11-22T00:34:30.825Z,63.06
2022-11-22T00:36:57.336Z,63.51
2022-11-22T00:39:23.802Z,63.42
2022-11-22T00:41:50.511Z,63.33
2022-11-22T00:44:16.974Z,63.42
2022-11-22T00:46:43.435Z,63.41
2022-11-22T00:49:10.009Z,63.34
2022-11-22T00:51:36.544Z,63.52
2022-11-22T00:54:03.148Z,63.26
2022-11-22T00:56:29.740Z,63.08
2022-11-22T00:58:56.191Z,63.67
2022-11-22T01:01:22.735Z,63.26
2022-11-22T01:03:49.300Z,63.25
2022-11-22T01:06:15.788Z,63.34
2022-11-22T01:08:42.520Z,63.30
2022-11-22T01:11:09.179Z,63.50
2022-11-22T01:13:35.805Z,63.54
2022-11-22T01:16:04.729Z,63.56
2022-11-22T01:18:32.247Z,63.38
2022-11-22T01:20:59.667Z,63.42
2022-11-22T01:23:26.611Z,63.28
2022-11-22T01:25:53.164Z,63.28
2022-11-22T01:28:19.998Z,63.42
2022-11-22T01:30:51.187Z,63.16
2022-11-22T01:33:18.287Z,63.08
2022-11-22T01:35:45.313Z,62.92
2022-11-22T01:38:12.054Z,63.05
2022-11-22T01:40:38.777Z,63.34
2022-11-22T01:43:16.138Z,63.18
2022-11-22T01:45:45.945Z,63.11
2022-11-22T01:48:12.383Z,63.00
2022-11-22T01:50:43.037Z,62.83
2022-11-22T01:53:15.032Z,62.85
2022-11-22T01:55:42.279Z,62.76
2022-11-22T01:58:10.498Z,62.67
2022-11-22T02:00:38.845Z,62.75
2022-11-22T02:03:09.583Z,62.71
2022-11-22T02:05:36.302Z,62.59
2022-11-22T02:08:15.469Z,62.53
2022-11-22T02:10:49.231Z,62.77
2022-11-22T02:13:18.045Z,62.58
2022-11-22T02:15:44.527Z,62.76
2022-11-22T02:18:11.218Z,62.82
2022-11-22T02:20:39.394Z,62.72
2022-11-22T02:23:10.714Z,62.94
2022-11-22T02:25:37.190Z,62.90
2022-11-22T02:28:04.872Z,62.92
2022-11-22T02:30:31.376Z,62.77
2022-11-22T02:32:58.088Z,62.67
2022-11-22T02:35:27.130Z,62.78
2022-11-22T02:38:09.316Z,62.89
2022-11-22T02:40:53.163Z,62.95
2022-11-22T02:43:26.943Z,62.75
2022-11-22T02:45:53.912Z,62.86
2022-11-22T02:48:20.711Z,62.89
2022-11-22T02:50:47.256Z,62.68
2022-11-22T02:53:14.267Z,62.75
2022-11-22T02:55:40.996Z,63.08
2022-11-22T02:58:07.714Z,62.88
2022-11-22T03:00:36.594Z,62.89
2022-11-22T03:03:03.188Z,63.06
2022-11-22T03:05:29.762Z,62.74
2022-11-22T03:07:56.267Z,63.08
2022-11-22T03:10:22.875Z,63.03
2022-11-22T03:12:49.355Z,62.98
2022-11-22T03:15:16.001Z,62.89
2022-11-22T03:17:42.536Z,62.85
2022-11-22T03:20:09.489Z,62.85
2022-11-22T03:22:36.202Z,62.52
2022-11-22T03:25:02.754Z,62.90
2022-11-22T03:27:29.387Z,62.82
2022-11-22T03:29:59.099Z,62.85
2022-11-22T03:32:25.601Z,62.74
2022-11-22T03:34:52.104Z,62.55
2022-11-22T03:37:18.669Z,62.66
2022-11-22T03:39:45.188Z,62.46
2022-11-22T03:42:13.620Z,62.57
2022-11-22T03:44:43.293Z,62.63
2022-11-22T03:47:09.786Z,62.79
2022-11-22T03:49:36.296Z,62.58
2022-11-22T03:52:02.861Z,62.42
2022-11-22T03:54:29.313Z,62.44
2022-11-22T03:56:55.759Z,62.46
2022-11-22T03:59:22.279Z,62.32
2022-11-22T04:01:48.900Z,62.27
2022-11-22T04:04:15.464Z,62.24
2022-11-22T04:06:41.946Z,62.23
2022-11-22T04:09:08.755Z,62.20
2022-11-22T04:11:35.383Z,62.50
2022-11-22T04:14:20.354Z,62.27
2022-11-22T04:16:46.836Z,61.92
2022-11-22T04:19:13.371Z,62.23
2022-11-22T04:21:39.865Z,62.15
2022-11-22T04:24:27.441Z,62.15
2022-11-22T04:26:54.804Z,62.16
2022-11-22T04:29:21.856Z,62.06
2022-11-22T04:32:07.986Z,62.02
2022-11-22T04:34:34.755Z,61.93
2022-11-22T04:37:02.095Z,62.06
2022-11-22T04:39:28.979Z,61.79
2022-11-22T04:42:15.098Z,61.86
2022-11-22T04:44:42.349Z,61.81
2022-11-22T04:47:10.516Z,61.82
2022-11-22T04:49:37.015Z,62.11
2022-11-22T04:52:23.363Z,61.88
2022-11-22T04:54:49.945Z,61.91
2022-11-22T04:57:16.716Z,62.00
2022-11-22T04:59:43.266Z,62.00
2022-11-22T05:02:09.804Z,61.88
2022-11-22T05:04:36.296Z,61.86
2022-11-22T05:07:02.927Z,61.99
2022-11-22T05:09:29.553Z,62.02
2022-11-22T05:11:56.259Z,61.95
2022-11-22T05:14:22.712Z,61.92
2022-11-22T05:16:49.219Z,61.88
2022-11-22T05:19:15.672Z,62.07
2022-11-22T05:21:42.163Z,61.90
2022-11-22T05:24:08.960Z,61.93
2022-11-22T05:26:36.528Z,61.73
2022-11-22T05:29:08.572Z,61.95
2022-11-22T05:31:37.178Z,61.66
2022-11-22T05:34:05.088Z,61.55
2022-11-22T05:36:33.513Z,61.74
2022-11-22T05:39:00.070Z,61.71
2022-11-22T05:41:26.671Z,61.92
2022-11-22T05:43:56.100Z,61.74
2022-11-22T05:46:26.432Z,61.65
2022-11-22T05:48:54.797Z,61.65
2022-11-22T05:51:24.252Z,61.83
2022-11-22T05:53:52.529Z,61.76
2022-11-22T05:56:21.507Z,61.87
2022-11-22T05:58:48.612Z,61.76
2022-11-22T06:01:18.372Z,61.75
2022-11-22T06:03:45.778Z,61.79
2022-11-22T06:06:12.996Z,61.60
2022-11-22T06:08:41.792Z,61.73
2022-11-22T06:11:16.219Z,61.74
2022-11-22T06:13:44.500Z,61.78
2022-11-22T06:16:12.009Z,61.58
2022-11-22T06:18:38.877Z,61.68
2022-11-22T06:21:07.791Z,61.80
2022-11-22T06:23:34.415Z,61.80
2022-11-22T06:26:06.905Z,61.69
2022-11-22T06:28:35.431Z,61.67
2022-11-22T06:31:07.152Z,61.71
2022-11-22T06:33:34.194Z,61.65
2022-11-22T06:36:11.032Z,61.68
2022-11-22T06:38:38.289Z,61.56
2022-11-22T06:41:07.315Z,61.70
2022-11-22T06:43:35.186Z,61.70
2022-11-22T06:46:03.856Z,61.67
2022-11-22T06:48:32.382Z,61.78
2022-11-22T06:51:01.981Z,61.93
2022-11-22T06:53:46.828Z,61.68
2022-11-22T06:56:25.067Z,61.81
2022-11-22T06:58:52.731Z,61.56
2022-11-22T07:01:24.995Z,61.69
2022-11-22T07:03:56.003Z,61.72
2022-11-22T07:06:22.480Z,61.71
2022-11-22T07:08:49.015Z,61.68
2022-11-22T07:11:18.161Z,61.66
2022-11-22T07:13:45.404Z,61.56
2022-11-22T07:16:14.480Z,61.63
2022-11-22T07:18:41.415Z,61.71
2022-11-22T07:21:13.211Z,61.76
2022-11-22T07:23:42.879Z,61.51
2022-11-22T07:26:10.076Z,61.69
2022-11-22T07:28:37.408Z,61.60
2022-11-22T07:31:06.692Z,61.71
2022-11-22T07:33:33.650Z,62.09
2022-11-22T07:36:08.796Z,61.87
2022-11-22T07:38:35.898Z,61.96
2022-11-22T07:41:03.051Z,62.13
2022-11-22T07:43:29.692Z,62.08
2022-11-22T07:46:03.977Z,62.16
2022-11-22T07:48:30.579Z,62.26
2022-11-22T07:50:57.210Z,62.22
2022-11-22T07:53:24.217Z,62.35
2022-11-22T07:55:50.714Z,62.39
2022-11-22T07:58:17.195Z,62.37
2022-11-22T08:00:43.653Z,62.28
2022-11-22T08:03:12.241Z,62.40
2022-11-22T08:05:42.148Z,62.11
2022-11-22T08:08:08.591Z,62.17
2022-11-22T08:10:35.158Z,62.44
2022-11-22T08:13:01.710Z,62.19
2022-11-22T08:15:28.375Z,62.36
2022-11-22T08:17:54.974Z,62.24
2022-11-22T08:20:21.574Z,62.40
2022-11-22T08:22:48.176Z,62.31
2022-11-22T08:25:14.651Z,62.11
2022-11-22T08:27:42.757Z,62.30
2022-11-22T08:30:11.107Z,62.13
2022-11-22T08:32:37.965Z,62.14
2022-11-22T08:35:05.099Z,61.99
2022-11-22T08:37:31.784Z,62.02
2022-11-22T08:39:58.369Z,62.14
2022-11-22T08:42:24.919Z,61.93
2022-11-22T08:44:51.483Z,62.14
2022-11-22T08:47:18.000Z,62.07
2022-11-22T08:49:44.495Z,62.19
2022-11-22T08:52:11.311Z,61.99
2022-11-22T08:54:38.361Z,62.02
2022-11-22T08:57:05.159Z,62.12
2022-11-22T08:59:32.190Z,61.83
2022-11-22T09:01:59.182Z,62.01
2022-11-22T09:04:25.747Z,61.84
2022-11-22T09:09:38.774Z,61.99
2022-11-22T09:12:05.812Z,61.88
2022-11-22T09:14:32.387Z,61.79
2022-11-22T09:16:58.948Z,61.69
2022-11-22T09:19:25.548Z,61.71
2022-11-22T09:21:52.018Z,61.67
2022-11-22T09:24:18.577Z,61.45
2022-11-22T09:26:45.064Z,61.71
2022-11-22T09:29:11.606Z,61.39
2022-11-22T09:31:38.590Z,61.65
2022-11-22T09:34:05.167Z,61.51
2022-11-22T09:36:31.704Z,61.77
2022-11-22T09:38:58.417Z,61.58
2022-11-22T09:41:45.049Z,61.70
2022-11-22T09:44:32.092Z,61.41
2022-11-22T09:47:17.934Z,61.48
2022-11-22T09:50:02.757Z,61.28
2022-11-22T09:52:48.476Z,61.06
2022-11-22T09:55:28.989Z,61.09
2022-11-22T09:58:36.797Z,61.05
2022-11-22T10:01:42.362Z,61.36
2022-11-22T10:04:19.305Z,61.13
2022-11-22T10:06:51.355Z,61.20
2022-11-22T10:09:54.812Z,60.99
2022-11-22T10:12:31.948Z,61.23
2022-11-22T10:15:19.891Z,60.88
2022-11-22T10:17:49.396Z,60.77
2022-11-22T10:20:17.759Z,60.89
2022-11-22T10:22:58.489Z,60.73
2022-11-22T10:25:41.912Z,60.59
2022-11-22T10:28:23.244Z,60.64
2022-11-22T10:31:04.801Z,60.63
2022-11-22T10:33:44.350Z,60.58
2022-11-22T10:36:46.986Z,60.56
2022-11-22T10:39:18.113Z,60.48
2022-11-22T10:41:57.709Z,60.22
2022-11-22T10:44:30.104Z,60.26
2022-11-22T10:47:17.624Z,60.28
2022-11-22T10:50:00.753Z,60.32
2022-11-22T10:52:55.107Z,60.13
2022-11-22T10:55:42.925Z,60.40
2022-11-22T10:58:21.257Z,60.53
2022-11-22T11:00:56.031Z,60.14
2022-11-22T11:03:38.811Z,60.05
2022-11-22T11:06:26.260Z,60.20
2022-11-22T11:11:55.968Z,60.05
2022-11-22T11:15:00.588Z,60.07
2022-11-22T11:17:31.877Z,59.76
2022-11-22T11:20:03.459Z,59.71
2022-11-22T11:23:06.570Z,59.85
2022-11-22T11:25:34.935Z,59.56
2022-11-22T11:28:08.518Z,59.78
2022-11-22T11:30:46.056Z,59.39
2022-11-22T11:33:31.234Z,59.41
2022-11-22T11:36:04.290Z,59.65
2022-11-22T11:38:48.812Z,59.44
2022-11-22T11:41:32.927Z,59.03
2022-11-22T11:44:05.437Z,59.03
2022-11-22T11:46:40.908Z,59.18
2022-11-22T11:49:17.925Z,58.97
2022-11-22T11:51:59.501Z,58.82
2022-11-22T11:54:30.607Z,58.87
2022-11-22T11:56:59.562Z,58.61
2022-11-22T11:59:43.953Z,58.49
2022-11-22T12:02:15.810Z,58.62
2022-11-22T12:04:50.370Z,58.35
2022-11-22T12:07:35.225Z,58.45
2022-11-22T12:10:23.117Z,58.31
2022-11-22T12:12:53.441Z,58.14
2022-11-22T12:15:26.846Z,58.22
2022-11-22T12:18:01.251Z,58.32
2022-11-22T12:20:59.156Z,58.00
2022-11-22T12:23:51.064Z,57.92
2022-11-22T12:26:18.410Z,58.26
2022-11-22T12:28:45.124Z,58.35
2022-11-22T12:31:15.488Z,58.07
2022-11-22T12:33:47.393Z,57.86
2022-11-22T12:36:33.224Z,57.88
2022-11-22T12:39:02.027Z,57.64
2022-11-22T12:41:31.148Z,58.17
2022-11-22T12:44:06.887Z,57.96
2022-11-22T12:46:40.139Z,57.97
2022-11-22T12:49:18.863Z,57.80
2022-11-22T12:52:07.066Z,57.67
2022-11-22T12:54:40.422Z,57.83
2022-11-22T12:57:23.455Z,57.80
2022-11-22T13:00:02.686Z,57.64
2022-11-22T13:02:34.766Z,57.75
2022-11-22T13:05:23.932Z,57.56
2022-11-22T13:08:13.485Z,57.62
2022-11-22T13:10:46.513Z,57.85
2022-11-22T13:13:21.603Z,57.69
2022-11-22T13:15:51.266Z,57.89
2022-11-22T13:18:18.029Z,57.73
2022-11-22T13:20:54.760Z,57.83
2022-11-22T13:23:41.560Z,57.79
2022-11-22T13:26:18.620Z,57.59
2022-11-22T13:28:45.778Z,57.67
2022-11-22T13:31:12.286Z,57.76
2022-11-22T13:33:52.706Z,57.46
2022-11-22T13:36:25.007Z,57.71
2022-11-22T13:38:54.445Z,57.46
2022-11-22T13:41:23.118Z,57.46
2022-11-22T13:43:55.993Z,57.78
2022-11-22T13:46:50.240Z,57.57
2022-11-22T13:49:32.530Z,57.26
2022-11-22T13:52:12.433Z,57.23
2022-11-22T13:54:59.000Z,57.36
2022-11-22T13:57:34.674Z,57.34
2022-11-22T14:00:12.965Z,57.16
2022-11-22T14:03:19.664Z,57.25
2022-11-22T14:05:50.345Z,57.34
2022-11-22T14:08:37.224Z,57.22
2022-11-22T14:11:39.083Z,56.98
2022-11-22T14:14:21.364Z,56.98
2022-11-22T14:17:08.061Z,57.21
2022-11-22T14:19:53.552Z,57.25
2022-11-22T14:22:38.025Z,57.00
2022-11-22T14:25:31.329Z,57.33
2022-11-22T14:28:04.297Z,57.19
2022-11-22T14:30:53.585Z,57.36
2022-11-22T14:33:25.561Z,57.27
2022-11-22T14:36:06.995Z,57.09
2022-11-22T14:38:35.694Z,57.22
2022-11-22T14:41:39.760Z,57.02
2022-11-22T14:44:18.247Z,57.05
2022-11-22T14:47:04.507Z,57.26
2022-11-22T14:49:46.768Z,57.39
2022-11-22T14:52:25.831Z,57.14
2022-11-22T14:54:56.971Z,57.22
2022-11-22T14:57:26.390Z,57.50
2022-11-22T15:00:14.634Z,57.36
2022-11-22T15:02:59.226Z,57.36
2022-11-22T15:09:11.059Z,57.35
2022-11-22T15:09:11.524Z,57.39
2022-11-22T15:11:39.228Z,57.15
2022-11-22T15:14:17.890Z,57.19
2022-11-22T15:59:43.705Z,58.29
2022-11-22T16:02:15.861Z,58.53
2022-11-22T16:06:04.680Z,58.61
2022-11-22T16:07:48.085Z,58.71
2022-11-22T16:10:40.147Z,58.80
2022-11-22T16:13:18.599Z,58.84
2022-11-22T16:16:02.936Z,58.58
2022-11-22T16:18:29.458Z,58.92
2022-11-22T16:20:59.678Z,59.44
2022-11-22T16:23:28.467Z,59.51
2022-11-22T16:25:58.502Z,59.45
2022-11-22T16:28:31.107Z,59.96
2022-11-22T16:31:06.229Z,60.16
2022-11-22T16:33:33.048Z,59.85
2022-11-22T16:36:01.476Z,60.10
2022-11-22T16:38:28.679Z,59.99
2022-11-22T16:40:57.517Z,60.33
2022-11-22T16:43:25.776Z,60.42
2022-11-22T16:45:52.700Z,60.36
2022-11-22T16:48:32.176Z,60.63
2022-11-22T16:51:03.339Z,60.60
2022-11-22T16:53:37.948Z,60.98
2022-11-22T16:56:04.573Z,60.85
2022-11-22T16:58:31.291Z,61.00
2022-11-22T17:00:59.504Z,60.76
2022-11-22T17:03:29.643Z,61.29
2022-11-22T17:05:56.090Z,61.08
2022-11-22T17:08:22.555Z,61.17
2022-11-22T17:10:50.807Z,61.23
2022-11-22T17:13:26.591Z,61.42
2022-11-22T17:15:55.036Z,61.39
2022-11-22T17:18:21.888Z,61.37
2022-11-22T17:20:48.964Z,61.20
2022-11-22T17:23:31.234Z,61.23
2022-11-22T17:25:57.768Z,61.11
2022-11-22T17:28:24.391Z,61.39
2022-11-22T17:30:51.492Z,61.11
2022-11-22T17:33:18.008Z,61.33
2022-11-22T17:35:44.712Z,61.46
2022-11-22T17:38:12.136Z,61.53
2022-11-22T17:40:38.963Z,61.46
2022-11-22T17:43:05.559Z,61.20
2022-11-22T17:45:32.210Z,61.40
2022-11-22T17:47:58.666Z,61.43
2022-11-22T17:50:25.238Z,61.41
2022-11-22T17:52:52.785Z,61.50
2022-11-22T17:55:19.419Z,61.25
2022-11-22T17:57:45.963Z,61.36
2022-11-22T18:00:14.157Z,61.39
2022-11-22T18:02:40.841Z,61.17
2022-11-22T18:05:09.691Z,61.36
2022-11-22T18:07:38.513Z,61.22
2022-11-22T18:10:09.831Z,61.11
2022-11-22T18:12:58.684Z,61.01
2022-11-22T18:15:26.882Z,61.06
2022-11-22T18:17:53.463Z,61.10
2022-11-22T18:20:19.972Z,61.44
2022-11-22T18:22:46.420Z,61.17
2022-11-22T18:25:13.047Z,61.21
2022-11-22T18:27:42.329Z,61.30
2022-11-22T18:30:09.837Z,61.56
2022-11-22T18:32:36.379Z,61.50
2022-11-22T18:35:02.961Z,61.38
2022-11-22T18:37:29.523Z,61.35
2022-11-22T18:39:56.206Z,61.62
2022-11-22T18:42:23.455Z,61.54
2022-11-22T18:44:49.949Z,61.78
2022-11-22T18:47:17.012Z,61.56
2022-11-22T18:49:43.549Z,61.52
2022-11-22T18:52:13.327Z,61.77
2022-11-22T18:54:43.037Z,61.92
2022-11-22T18:57:09.493Z,61.72
2022-11-22T18:59:36.006Z,62.14
2022-11-22T19:02:02.504Z,62.02
2022-11-22T19:04:30.779Z,62.02
2022-11-22T19:06:57.641Z,62.30
2022-11-22T19:09:24.139Z,62.18
2022-11-22T19:11:55.528Z,62.40
2022-11-22T19:14:24.785Z,62.28
2022-11-22T19:16:51.273Z,62.50
2022-11-22T19:19:17.842Z,62.41
2022-11-22T19:21:44.333Z,62.41
2022-11-22T19:24:10.919Z,62.77
2022-11-22T19:26:37.542Z,62.85
2022-11-22T19:29:04.919Z,62.56
2022-11-22T19:31:31.813Z,62.58
2022-11-22T19:33:59.485Z,62.67
2022-11-22T19:36:32.594Z,62.71
2022-11-22T19:39:00.863Z,62.78
2022-11-22T19:41:27.437Z,62.81
2022-11-22T19:43:58.704Z,63.00
2022-11-22T19:46:26.000Z,63.17
2022-11-22T19:48:54.221Z,63.18
2022-11-22T19:51:21.776Z,62.97
2022-11-22T19:53:49.252Z,62.89
2022-11-22T19:56:18.277Z,63.26
2022-11-22T19:58:50.866Z,63.27
2022-11-22T20:01:18.255Z,63.36
2022-11-22T20:03:48.004Z,63.15
2022-11-22T20:06:14.550Z,63.33
2022-11-22T20:08:41.284Z,63.13
2022-11-22T20:11:13.158Z,63.34
2022-11-22T20:13:42.720Z,63.20
2022-11-22T20:16:16.105Z,63.16
2022-11-22T20:18:43.091Z,63.24
2022-11-22T20:21:11.088Z,63.34
2022-11-22T20:23:38.540Z,63.64
2022-11-22T20:26:11.083Z,63.13
2022-11-22T20:28:39.069Z,63.55
2022-11-22T20:31:13.693Z,63.17
2022-11-22T20:33:42.359Z,63.15
2022-11-22T20:36:12.587Z,63.47
2022-11-22T20:38:41.148Z,63.40
2022-11-22T20:41:09.729Z,63.23
2022-11-22T20:43:36.803Z,63.50
2022-11-22T20:46:06.367Z,63.56
2022-11-22T20:48:34.165Z,63.39
2022-11-22T20:51:02.434Z,63.26
2022-11-22T20:53:29.545Z,63.30
2022-11-22T20:55:56.231Z,63.28
2022-11-22T20:58:25.948Z,63.24
2022-11-22T21:00:53.578Z,63.81
2022-11-22T21:03:20.332Z,63.69
2022-11-22T21:05:50.300Z,63.58
2022-11-22T21:08:16.885Z,63.49
2022-11-22T21:10:43.661Z,63.87
2022-11-22T21:13:10.259Z,63.83
2022-11-22T21:15:36.730Z,63.68
2022-11-22T21:18:24.054Z,63.50
2022-11-22T21:20:51.151Z,63.58
2022-11-22T21:23:18.000Z,63.93
2022-11-22T21:25:44.472Z,63.94
2022-11-22T21:28:11.095Z,63.62
2022-11-22T21:30:37.536Z,63.61
2022-11-22T21:33:04.112Z,63.83
2022-11-22T21:35:30.950Z,63.86
2022-11-22T21:37:57.524Z,63.77
2022-11-22T21:40:24.017Z,63.62
2022-11-22T21:42:50.511Z,63.66
2022-11-22T21:45:17.036Z,64.09
2022-11-22T21:47:43.495Z,63.99
2022-11-22T21:50:11.755Z,64.07
2022-11-22T21:52:38.519Z,64.02
2022-11-22T21:55:05.447Z,64.17
2022-11-22T21:57:33.259Z,63.85
2022-11-22T21:59:59.748Z,64.24
2022-11-22T22:02:29.439Z,64.04
2022-11-22T22:04:55.972Z,63.88
2022-11-22T22:07:50.719Z,64.00
2022-11-22T22:10:09.322Z,64.13
2022-11-22T22:12:35.767Z,64.13
2022-11-22T22:15:02.976Z,64.12
2022-11-22T22:17:29.452Z,64.13
2022-11-22T22:19:55.957Z,64.18
2022-11-22T22:22:22.542Z,64.47
2022-11-22T22:24:49.017Z,64.11
2022-11-22T22:27:15.540Z,64.37
2022-11-22T22:29:41.995Z,64.39
2022-11-22T22:32:10.735Z,64.28
2022-11-22T22:34:37.427Z,64.35
2022-11-22T22:37:03.883Z,64.30
2022-11-22T22:39:30.954Z,64.24
2022-11-22T22:41:57.550Z,64.45
2022-11-22T22:44:24.102Z,64.13
2022-11-22T22:46:50.602Z,64.34
2022-11-22T22:49:17.116Z,64.53
2022-11-22T22:51:43.561Z,64.36
2022-11-22T22:54:10.304Z,64.60
2022-11-22T22:56:36.931Z,64.57
2022-11-22T22:59:05.148Z,64.35
2022-11-22T23:01:32.081Z,64.26
2022-11-22T23:04:01.409Z,64.47
2022-11-22T23:06:33.395Z,64.65
2022-11-22T23:09:00.213Z,64.45
2022-11-22T23:11:48.344Z,64.67
2022-11-22T23:14:18.768Z,64.45
2022-11-22T23:16:45.385Z,64.38
2022-11-22T23:19:12.482Z,64.63
2022-11-22T23:21:39.413Z,64.49
2022-11-22T23:24:06.996Z,64.48
2022-11-22T23:26:33.932Z,64.51
2022-11-22T23:29:00.663Z,64.56
2022-11-22T23:31:27.468Z,64.55
2022-11-22T23:33:53.979Z,64.66
2022-11-22T23:36:21.793Z,64.89
2022-11-22T23:38:48.572Z,64.62
2022-11-22T23:41:19.851Z,64.79
2022-11-22T23:43:47.768Z,64.61
2022-11-22T23:46:17.915Z,64.88
2022-11-22T23:48:45.846Z,64.96
2022-11-22T23:51:13.326Z,64.88
2022-11-22T23:53:39.844Z,64.73
2022-11-22T23:56:08.103Z,64.87
2022-11-22T23:58:35.111Z,64.91
